Time;durP1;ratioP1;P1;durP2;ratioP2;P2;SDS_P1;SDS_P2;PMS_P1;PMS_P2;Temp;Humidity;BMP_temperature;BMP_pressure;BME280_temperature;BME280_humidity;BME280_pressure;Samples;Min_cycle;Max_cycle;Signal;HPM_P1;HPM_P2
2023/03/12 00:00:43;;;;;;;13.10;5.20;;;0.60;1.00;;;;;;5012325;28;20457;-56
2023/03/12 00:03:08;;;;;;;13.63;5.90;;;1.30;1.00;;;;;;5011458;28;20401;-55
2023/03/12 00:05:38;;;;;;;13.77;5.30;;;0.60;1.00;;;;;;5012105;28;20392;-55
2023/03/12 00:08:04;;;;;;;13.95;5.90;;;0.60;1.00;;;;;;5004538;28;20531;-58
2023/03/12 00:10:30;;;;;;;9.90;4.30;;;0.60;1.00;;;;;;5012188;28;20476;-56
2023/03/12 00:12:56;;;;;;;10.60;5.00;;;0.50;1.00;;;;;;5010917;28;20511;-58
2023/03/12 00:15:22;;;;;;;10.30;4.80;;;0.40;1.00;;;;;;5011605;28;20829;-56
2023/03/12 00:17:48;;;;;;;11.60;4.33;;;0.30;1.00;;;;;;5011366;28;20905;-56
2023/03/12 00:20:13;;;;;;;9.18;3.97;;;0.30;1.00;;;;;;5010901;28;20577;-56
2023/03/12 00:22:39;;;;;;;11.20;4.30;;;0.20;1.00;;;;;;5011916;28;20885;-56
2023/03/12 00:25:06;;;;;;;11.93;5.05;;;0.20;1.00;;;;;;5011096;28;20857;-56
2023/03/12 00:27:32;;;;;;;14.93;5.03;;;0.20;17.90;;;;;;5011617;28;20479;-56
2023/03/12 00:29:58;;;;;;;12.68;4.70;;;0.30;22.80;;;;;;5010923;28;20468;-56
2023/03/12 00:32:23;;;;;;;12.07;4.53;;;0.30;51.60;;;;;;5011556;28;20424;-56
2023/03/12 00:34:53;;;;;;;9.70;4.63;;;0.30;1.00;;;;;;5011513;28;20746;-56
2023/03/12 00:37:19;;;;;;;12.23;4.50;;;0.30;1.00;;;;;;5011076;28;20480;-56
2023/03/12 00:39:45;;;;;;;12.73;4.80;;;0.30;1.00;;;;;;5011716;28;20851;-56
2023/03/12 00:42:12;;;;;;;13.40;5.00;;;0.30;1.00;;;;;;5010515;28;20397;-56
2023/03/12 00:44:38;;;;;;;9.25;4.40;;;0.40;1.00;;;;;;5011474;28;20407;-56
2023/03/12 00:47:03;;;;;;;8.80;3.93;;;0.40;1.00;;;;;;5010699;28;20899;-56
2023/03/12 00:49:29;;;;;;;9.93;3.92;;;0.40;1.00;;;;;;5011180;28;20385;-56
2023/03/12 00:51:55;;;;;;;12.03;4.30;;;0.40;1.00;;;;;;5010308;28;20862;-59
2023/03/12 00:54:21;;;;;;;12.07;4.27;;;0.40;1.00;;;;;;5010658;28;20393;-56
2023/03/12 00:56:47;;;;;;;9.05;4.38;;;0.30;27.00;;;;;;5010864;28;20405;-55
2023/03/12 00:59:14;;;;;;;9.70;4.05;;;0.40;8.40;;;;;;5010163;28;21266;-56
2023/03/12 01:01:39;;;;;;;10.05;4.00;;;0.40;1.00;;;;;;5010861;28;20405;-56
2023/03/12 01:04:05;;;;;;;9.00;3.77;;;0.40;1.00;;;;;;5010340;28;20411;-56
2023/03/12 01:06:30;;;;;;;9.27;4.15;;;0.40;1.00;;;;;;5011306;28;20397;-56
2023/03/12 01:08:56;;;;;;;10.30;4.30;;;0.40;1.00;;;;;;5010488;28;20727;-58
2023/03/12 01:11:22;;;;;;;11.10;4.33;;;0.50;10.40;;;;;;5010549;28;20393;-55
2023/03/12 01:13:48;;;;;;;11.10;3.60;;;0.40;9.10;;;;;;5010779;28;20796;-56
2023/03/12 01:16:13;;;;;;;11.32;3.78;;;0.40;68.90;;;;;;5008635;28;21062;-56
2023/03/12 01:18:40;;;;;;;12.70;4.30;;;0.50;90.10;;;;;;5009925;28;20408;-56
2023/03/12 01:21:06;;;;;;;11.25;4.25;;;0.50;69.30;;;;;;5009901;28;20886;-56
2023/03/12 01:23:31;;;;;;;16.08;5.05;;;0.50;99.90;;;;;;5010007;28;20409;-56
2023/03/12 01:25:58;;;;;;;10.40;4.55;;;0.50;99.90;;;;;;5008337;28;20455;-57
2023/03/12 01:28:24;;;;;;;11.10;4.40;;;0.60;81.40;;;;;;5010354;28;20397;-56
2023/03/12 01:30:50;;;;;;;13.40;4.85;;;0.70;75.90;;;;;;5010176;28;20499;-56
2023/03/12 01:33:17;;;;;;;10.02;4.22;;;0.60;36.50;;;;;;5009206;28;20966;-56
2023/03/12 01:35:43;;;;;;;13.35;5.40;;;0.60;90.20;;;;;;5010920;28;20486;-56
2023/03/12 01:38:13;;;;;;;12.20;4.60;;;0.70;72.00;;;;;;5009475;28;20806;-56
2023/03/12 01:40:39;;;;;;;11.32;5.20;;;0.80;99.90;;;;;;5010239;28;20404;-56
2023/03/12 01:43:28;;;;;;;12.43;4.60;;;1.00;51.50;;;;;;5009582;28;20397;-56
2023/03/12 01:46:05;;;;;;;10.52;4.15;;;1.00;18.40;;;;;;5009893;28;20408;-59
2023/03/12 01:48:40;;;;;;;12.40;5.33;;;0.90;1.00;;;;;;5010615;28;20503;-56
2023/03/12 01:51:09;;;;;;;10.13;4.77;;;1.00;1.00;;;;;;5009275;28;20407;-56
2023/03/12 01:53:36;;;;;;;16.23;4.60;;;1.10;1.00;;;;;;5009759;28;20433;-56
2023/03/12 01:56:02;;;;;;;11.00;4.50;;;1.20;1.00;;;;;;5009624;28;20890;-56
2023/03/12 01:58:30;;;;;;;11.45;4.93;;;1.20;1.00;;;;;;5010323;28;20420;-56
2023/03/12 02:00:56;;;;;;;14.90;4.65;;;1.10;1.00;;;;;;5009664;28;20480;-59
2023/03/12 02:03:22;;;;;;;11.55;4.38;;;1.20;1.00;;;;;;5009777;28;20476;-56
2023/03/12 02:05:53;;;;;;;14.73;5.53;;;1.10;1.00;;;;;;5009907;28;20424;-56
2023/03/12 02:08:21;;;;;;;11.37;5.00;;;1.10;1.00;;;;;;5009476;28;20397;-55
2023/03/12 02:10:46;;;;;;;12.27;5.30;;;1.10;1.00;;;;;;5009603;28;20916;-56
2023/03/12 02:13:13;;;;;;;15.57;5.47;;;1.20;1.00;;;;;;5009253;28;20413;-56
2023/03/12 02:15:39;;;;;;;12.10;4.93;;;1.20;1.00;;;;;;5009600;28;20482;-56
2023/03/12 02:18:12;;;;;;;15.77;5.77;;;1.30;1.00;;;;;;5009341;28;20509;-56
2023/03/12 02:20:43;;;;;;;11.90;5.00;;;1.70;1.00;;;;;;5009899;28;20477;-56
2023/03/12 02:23:20;;;;;;;12.27;5.15;;;1.20;1.00;;;;;;5009100;28;20416;-56
2023/03/12 02:25:49;;;;;;;18.83;5.30;;;1.20;1.00;;;;;;5009659;28;20389;-56
2023/03/12 02:28:18;;;;;;;14.18;5.47;;;1.20;1.00;;;;;;5008746;28;21188;-56
2023/03/12 02:30:47;;;;;;;11.70;5.00;;;1.00;1.00;;;;;;5009749;28;20381;-56
2023/03/12 02:33:14;;;;;;;9.80;4.78;;;0.90;1.00;;;;;;5009031;28;20447;-55
2023/03/12 02:35:41;;;;;;;15.93;5.10;;;1.20;6.30;;;;;;5009433;28;20531;-56
2023/03/12 02:38:32;;;;;;;13.95;5.70;;;0.90;44.10;;;;;;5008781;28;20397;-56
2023/03/12 02:41:04;;;;;;;16.35;6.43;;;0.90;66.70;;;;;;5009063;28;20415;-59
2023/03/12 02:43:30;;;;;;;12.23;5.53;;;0.90;99.90;;;;;;5011318;28;20874;-56
2023/03/12 02:45:55;;;;;;;15.50;6.27;;;2.40;99.90;;;;;;5013405;28;20504;-58
2023/03/12 02:48:21;;;;;;;13.60;5.72;;;0.90;99.90;;;;;;5012338;28;20412;-56
2023/03/12 02:50:47;;;;;;;12.07;5.60;;;0.90;99.90;;;;;;5013782;28;20451;-55
2023/03/12 02:53:12;;;;;;;11.67;5.33;;;0.90;99.90;;;;;;5012633;28;20507;-56
2023/03/12 02:55:38;;;;;;;13.27;5.40;;;0.80;99.90;;;;;;5013426;28;20870;-56
2023/03/12 02:58:03;;;;;;;17.25;6.15;;;0.80;99.90;;;;;;5012782;28;20431;-55
2023/03/12 03:00:31;;;;;;;13.67;6.10;;;0.80;99.90;;;;;;5013061;28;20399;-56
2023/03/12 03:02:58;;;;;;;13.65;5.95;;;0.70;99.90;;;;;;5013208;28;20393;-59
2023/03/12 03:05:24;;;;;;;14.30;5.95;;;0.70;99.90;;;;;;5012886;28;20395;-56
2023/03/12 03:07:49;;;;;;;12.00;5.90;;;0.60;1.00;;;;;;5013153;28;20404;-56
2023/03/12 03:10:16;;;;;;;12.90;5.90;;;0.60;1.00;;;;;;5012384;28;21200;-56
2023/03/12 03:12:42;;;;;;;12.63;5.05;;;0.50;1.00;;;;;;5013161;28;20420;-56
2023/03/12 03:15:10;;;;;;;12.73;5.65;;;0.40;1.00;;;;;;5011349;28;20413;-56
2023/03/12 03:17:36;;;;;;;15.85;6.05;;;0.40;76.40;;;;;;5013015;28;20428;-56
2023/03/12 03:20:06;;;;;;;11.53;5.57;;;0.40;99.90;;;;;;5012074;28;20409;-56
2023/03/12 03:22:32;;;;;;;11.90;5.20;;;0.40;99.90;;;;;;5012622;28;20401;-55
2023/03/12 03:24:58;;;;;;;16.60;6.33;;;0.40;1.00;;;;;;5010627;28;20901;-59
2023/03/12 03:27:24;;;;;;;11.32;5.25;;;0.40;1.00;;;;;;5012063;28;20393;-55
2023/03/12 03:29:49;;;;;;;15.27;5.75;;;0.50;1.00;;;;;;5012222;28;20503;-55
2023/03/12 03:32:15;;;;;;;14.20;6.30;;;0.50;99.90;;;;;;5011773;28;20424;-55
2023/03/12 03:34:40;;;;;;;15.70;6.00;;;0.50;99.90;;;;;;5012851;28;20500;-56
2023/03/12 03:37:06;;;;;;;16.02;5.60;;;0.60;99.90;;;;;;5011714;28;20466;-56
2023/03/12 03:39:33;;;;;;;12.80;6.00;;;0.60;99.90;;;;;;5012590;28;20408;-55
2023/03/12 03:41:59;;;;;;;15.38;6.20;;;1.10;99.90;;;;;;5011942;28;20404;-59
2023/03/12 03:44:25;;;;;;;15.48;5.70;;;0.60;57.70;;;;;;5011963;28;20407;-56
2023/03/12 03:46:50;;;;;;;12.95;5.60;;;0.70;99.90;;;;;;5012379;28;20427;-57
2023/03/12 03:49:16;;;;;;;13.43;6.30;;;0.80;99.90;;;;;;5011714;28;20590;-56
2023/03/12 03:51:42;;;;;;;13.57;6.18;;;0.90;86.00;;;;;;5011324;28;20421;-55
2023/03/12 03:54:08;;;;;;;12.15;5.80;;;1.70;1.00;;;;;;5011171;28;20397;-56
2023/03/12 03:56:34;;;;;;;11.63;5.82;;;1.00;1.00;;;;;;5012218;28;20415;-56
2023/03/12 03:59:00;;;;;;;14.00;6.28;;;1.00;1.00;;;;;;5011572;28;20393;-58
2023/03/12 04:01:26;;;;;;;13.50;6.03;;;2.30;1.00;;;;;;5012042;28;20897;-56
2023/03/12 04:03:52;;;;;;;16.05;5.63;;;1.00;1.00;;;;;;5012204;28;20396;-55
2023/03/12 04:06:18;;;;;;;11.23;5.60;;;1.00;1.00;;;;;;5011308;28;20393;-55
2023/03/12 04:08:44;;;;;;;13.90;6.20;;;1.20;1.00;;;;;;5011731;28;20455;-56
2023/03/12 04:11:15;;;;;;;10.98;5.78;;;1.20;1.00;;;;;;5011415;28;20388;-55
2023/03/12 04:13:41;;;;;;;13.60;5.57;;;1.30;99.90;;;;;;5012033;28;20492;-56
2023/03/12 04:16:07;;;;;;;13.83;5.73;;;1.20;99.90;;;;;;5010544;28;20511;-56
2023/03/12 04:18:34;;;;;;;11.87;6.27;;;1.30;99.90;;;;;;5012209;28;20393;-55
2023/03/12 04:21:00;;;;;;;11.07;5.30;;;1.30;99.90;;;;;;5011371;28;20393;-59
2023/03/12 04:23:26;;;;;;;10.25;5.43;;;1.40;99.90;;;;;;5012046;28;20854;-55
2023/03/12 04:25:52;;;;;;;13.07;6.10;;;1.50;99.90;;;;;;5011860;28;20405;-56
2023/03/12 04:28:17;;;;;;;13.63;5.90;;;1.50;99.90;;;;;;5010772;28;20964;-55
2023/03/12 04:30:43;;;;;;;12.50;5.47;;;1.60;99.90;;;;;;5011607;28;20435;-55
2023/03/12 04:33:09;;;;;;;12.40;5.75;;;1.50;99.90;;;;;;5010694;28;20917;-56
2023/03/12 04:35:34;;;;;;;10.77;5.87;;;1.50;99.90;;;;;;5011600;28;20399;-56
2023/03/12 04:38:01;;;;;;;10.20;5.60;;;2.70;99.90;;;;;;5010872;28;20739;-59
2023/03/12 04:40:27;;;;;;;11.55;5.30;;;2.70;99.90;;;;;;5011623;28;20433;-55
2023/03/12 04:42:52;;;;;;;12.07;5.30;;;1.60;99.90;;;;;;5011310;28;20798;-55
2023/03/12 04:45:18;;;;;;;11.82;5.10;;;1.70;99.90;;;;;;5010671;28;20401;-56
2023/03/12 04:47:44;;;;;;;13.60;5.60;;;3.30;99.90;;;;;;5011527;28;20468;-56
2023/03/12 04:50:11;;;;;;;12.30;5.30;;;1.80;99.90;;;;;;5010555;28;20446;-55
2023/03/12 04:52:37;;;;;;;10.05;5.70;;;1.80;99.90;;;;;;5010799;28;20455;-56
2023/03/12 04:55:03;;;;;;;10.35;5.38;;;1.70;99.90;;;;;;5010345;28;20409;-56
2023/03/12 04:57:28;;;;;;;10.95;5.15;;;1.60;99.90;;;;;;5011318;28;20408;-56
2023/03/12 04:59:54;;;;;;;13.77;5.90;;;1.60;99.90;;;;;;5011281;28;20866;-55
2023/03/12 05:02:19;;;;;;;14.93;6.57;;;1.50;99.90;;;;;;5010158;28;20392;-55
2023/03/12 05:04:45;;;;;;;10.50;5.13;;;1.60;99.90;;;;;;5010788;28;20497;-56
2023/03/12 05:07:10;;;;;;;12.68;5.22;;;1.70;99.90;;;;;;5009180;28;20862;-56
2023/03/12 05:09:36;;;;;;;11.47;5.17;;;1.70;99.90;;;;;;5011021;28;20401;-55
2023/03/12 05:12:02;;;;;;;11.50;5.70;;;1.80;99.90;;;;;;5009913;28;20416;-58
2023/03/12 05:14:28;;;;;;;12.60;6.10;;;1.90;99.90;;;;;;5010528;28;20470;-56
2023/03/12 05:16:53;;;;;;;11.50;6.00;;;1.90;78.00;;;;;;5010902;28;20424;-55
2023/03/12 05:19:19;;;;;;;13.00;5.83;;;1.80;64.50;;;;;;5009817;28;20424;-55
2023/03/12 05:21:45;;;;;;;13.68;5.60;;;1.80;54.30;;;;;;5010457;28;20405;-56
2023/03/12 05:24:11;;;;;;;12.77;5.88;;;1.80;30.10;;;;;;5010160;28;20481;-56
2023/03/12 05:26:38;;;;;;;11.38;6.00;;;1.90;28.70;;;;;;4989921;28;20573;-55
2023/03/12 05:29:10;;;;;;;13.48;4.82;;;1.90;42.70;;;;;;5065539;28;20365;-55
2023/03/12 05:31:36;;;;;;;12.93;5.40;;;2.00;50.50;;;;;;5066637;28;20404;-55
2023/03/12 05:34:03;;;;;;;12.10;5.90;;;2.00;49.80;;;;;;5064353;28;20416;-58
2023/03/12 05:36:28;;;;;;;16.73;5.00;;;2.00;55.40;;;;;;5066014;28;20406;-55
2023/03/12 05:38:54;;;;;;;10.95;5.28;;;2.00;43.80;;;;;;5066725;28;20533;-55
2023/03/12 05:41:28;;;;;;;12.38;5.95;;;2.10;34.80;;;;;;5065363;28;20566;-55
2023/03/12 05:43:56;;;;;;;13.32;5.10;;;3.90;1.00;;;;;;5050651;28;20418;-55
2023/03/12 05:46:23;;;;;;;12.90;6.00;;;2.10;1.00;;;;;;5049220;28;20405;-55
2023/03/12 05:48:50;;;;;;;13.48;5.80;;;2.20;6.70;;;;;;5066301;28;20466;-55
2023/03/12 05:51:15;;;;;;;12.85;4.78;;;2.20;1.00;;;;;;5065232;28;20443;-55
2023/03/12 05:53:41;;;;;;;11.32;4.63;;;2.30;1.00;;;;;;5066092;28;20412;-55
2023/03/12 05:56:10;;;;;;;12.77;5.72;;;2.30;4.10;;;;;;5065347;28;20922;-55
2023/03/12 05:58:36;;;;;;;14.18;6.03;;;3.90;38.20;;;;;;5065394;28;20527;-56
2023/03/12 06:01:09;;;;;;;11.52;5.78;;;2.20;99.90;;;;;;5046938;28;20406;-58
2023/03/12 06:03:35;;;;;;;11.05;5.35;;;2.30;99.90;;;;;;5046529;28;20390;-55
2023/03/12 06:06:00;;;;;;;11.87;5.17;;;2.40;99.90;;;;;;5045935;28;20414;-58
2023/03/12 06:08:26;;;;;;;12.57;5.80;;;2.40;99.90;;;;;;5045844;28;20422;-55
2023/03/12 06:10:55;;;;;;;11.77;5.40;;;3.20;99.90;;;;;;5045040;28;20449;-55
2023/03/12 06:13:21;;;;;;;13.63;5.70;;;2.50;99.90;;;;;;5038589;28;20485;-55
2023/03/12 06:15:48;;;;;;;14.85;5.38;;;2.50;99.90;;;;;;5026326;28;20388;-55
2023/03/12 06:18:14;;;;;;;11.18;5.68;;;2.50;99.90;;;;;;5028479;28;20416;-59
2023/03/12 06:20:40;;;;;;;13.30;5.78;;;2.60;99.90;;;;;;5036407;28;20404;-56
2023/03/12 06:23:05;;;;;;;10.70;5.13;;;3.90;51.30;;;;;;5033109;28;20550;-56
2023/03/12 06:25:31;;;;;;;12.80;5.83;;;2.60;28.40;;;;;;5037682;28;20426;-56
2023/03/12 06:27:57;;;;;;;12.50;5.35;;;2.60;22.20;;;;;;5046405;28;20444;-56
2023/03/12 06:30:22;;;;;;;11.20;4.90;;;3.90;43.30;;;;;;5051345;28;20418;-56
2023/03/12 06:32:48;;;;;;;10.20;4.63;;;2.50;45.20;;;;;;5053514;28;20396;-56
2023/03/12 06:35:14;;;;;;;10.03;4.90;;;2.50;62.50;;;;;;5057775;28;20395;-56
2023/03/12 06:37:39;;;;;;;10.20;5.15;;;2.40;99.90;;;;;;5055169;28;20891;-57
2023/03/12 06:40:08;;;;;;;12.30;4.68;;;2.40;99.90;;;;;;5042313;28;20907;-56
2023/03/12 06:42:34;;;;;;;11.40;5.80;;;2.40;99.90;;;;;;5042684;28;20434;-56
2023/03/12 06:45:00;;;;;;;14.00;6.33;;;2.50;99.90;;;;;;5048034;28;20403;-59
2023/03/12 06:47:26;;;;;;;13.47;5.33;;;2.50;99.90;;;;;;5028699;28;20510;-55
2023/03/12 06:49:51;;;;;;;14.23;5.93;;;2.60;99.90;;;;;;5049122;28;20483;-57
2023/03/12 06:52:17;;;;;;;14.80;6.97;;;4.10;99.90;;;;;;5047691;28;20451;-56
2023/03/12 06:54:43;;;;;;;12.87;6.33;;;3.60;1.00;;;;;;5047738;28;20394;-56
2023/03/12 06:57:08;;;;;;;12.20;6.10;;;2.80;1.00;;;;;;5048562;28;20413;-57
2023/03/12 06:59:34;;;;;;;11.75;5.30;;;3.00;1.00;;;;;;5044378;28;20430;-58
2023/03/12 07:01:59;;;;;;;13.07;5.50;;;3.00;1.00;;;;;;5043672;28;20734;-60
2023/03/12 07:04:25;;;;;;;13.60;5.60;;;3.00;99.90;;;;;;5035241;28;20532;-60
2023/03/12 07:06:51;;;;;;;11.57;5.70;;;2.90;1.00;;;;;;5039903;28;20485;-56
2023/03/12 07:09:17;;;;;;;11.57;5.53;;;2.90;99.90;;;;;;5040038;28;20465;-57
2023/03/12 07:11:44;;;;;;;12.15;4.72;;;2.70;1.00;;;;;;5048828;28;20895;-56
2023/03/12 07:14:09;;;;;;;10.98;5.30;;;2.70;99.90;;;;;;5033431;28;20599;-56
2023/03/12 07:16:35;;;;;;;11.53;5.70;;;2.70;1.00;;;;;;5036171;28;20525;-55
2023/03/12 07:19:01;;;;;;;10.48;6.03;;;3.40;99.90;;;;;;5039620;28;20591;-58
2023/03/12 07:21:26;;;;;;;12.73;5.10;;;2.80;1.00;;;;;;5041397;28;20450;-56
2023/03/12 07:23:52;;;;;;;11.37;4.93;;;2.90;1.00;;;;;;5045702;28;20418;-55
2023/03/12 07:26:18;;;;;;;11.27;5.20;;;3.00;1.00;;;;;;5048120;28;20408;-55
2023/03/12 07:28:44;;;;;;;13.50;5.50;;;3.10;99.90;;;;;;5045526;28;20569;-59
2023/03/12 07:31:10;;;;;;;11.27;5.30;;;4.60;1.00;;;;;;5039228;28;20895;-55
2023/03/12 07:33:37;;;;;;;12.48;6.57;;;3.10;1.00;;;;;;5035701;28;20407;-56
2023/03/12 07:36:03;;;;;;;11.82;5.20;;;3.20;1.00;;;;;;5035944;28;20465;-58
2023/03/12 07:38:29;;;;;;;14.70;6.18;;;3.30;1.00;;;;;;5032827;28;20383;-56
2023/03/12 07:40:57;;;;;;;13.07;5.60;;;3.30;1.00;;;;;;5035789;28;20399;-57
2023/03/12 07:43:23;;;;;;;10.43;5.38;;;3.30;1.00;;;;;;5034569;28;20456;-57
2023/03/12 07:45:50;;;;;;;10.10;5.57;;;4.00;1.00;;;;;;5038471;28;20411;-57
2023/03/12 07:48:18;;;;;;;11.10;5.90;;;3.30;1.00;;;;;;5050779;28;20419;-57
2023/03/12 07:50:44;;;;;;;14.25;6.50;;;3.50;1.00;;;;;;5039545;28;20403;-55
2023/03/12 07:53:09;;;;;;;14.07;5.15;;;3.40;99.90;;;;;;5041259;28;20398;-56
2023/03/12 07:55:35;;;;;;;12.83;5.23;;;3.40;1.00;;;;;;5046173;28;20392;-58
2023/03/12 07:58:01;;;;;;;11.30;5.03;;;3.80;99.90;;;;;;5044758;28;20487;-57
2023/03/12 08:00:27;;;;;;;10.80;4.90;;;4.70;1.00;;;;;;5047179;28;20410;-57
2023/03/12 08:02:53;;;;;;;13.15;5.72;;;3.40;99.90;;;;;;5047857;28;20865;-55
2023/03/12 08:05:23;;;;;;;9.82;4.95;;;5.20;1.00;;;;;;5050618;28;20990;-56
2023/03/12 08:07:50;;;;;;;11.88;5.50;;;3.60;99.90;;;;;;5046068;28;20415;-57
2023/03/12 08:10:15;;;;;;;10.43;4.95;;;3.70;1.00;;;;;;5048462;28;20514;-56
2023/03/12 08:12:41;;;;;;;10.83;5.37;;;3.70;1.00;;;;;;5048662;28;20478;-59
2023/03/12 08:15:09;;;;;;;14.68;6.00;;;3.90;1.00;;;;;;5047294;28;20436;-57
2023/03/12 08:17:35;;;;;;;12.25;5.40;;;4.00;99.90;;;;;;5045373;28;20457;-55
2023/03/12 08:20:01;;;;;;;10.18;5.07;;;4.00;1.00;;;;;;5041240;28;20466;-59
2023/03/12 08:22:26;;;;;;;10.15;4.95;;;3.90;1.00;;;;;;5047963;28;20485;-55
2023/03/12 08:24:52;;;;;;;10.47;4.77;;;3.90;99.90;;;;;;5053278;28;20384;-55
2023/03/12 08:27:17;;;;;;;10.90;5.10;;;3.80;1.00;;;;;;5043350;28;20447;-55
2023/03/12 08:29:43;;;;;;;11.47;5.60;;;5.00;1.00;;;;;;5063289;28;20400;-55
2023/03/12 08:32:09;;;;;;;11.73;5.53;;;4.00;99.90;;;;;;5052795;28;20470;-56
2023/03/12 08:34:35;;;;;;;10.48;4.88;;;4.10;47.10;;;;;;5050442;28;20420;-56
2023/03/12 08:37:01;;;;;;;10.68;4.97;;;4.10;1.00;;;;;;5057834;28;20387;-59
2023/03/12 08:39:27;;;;;;;9.50;5.00;;;4.10;99.90;;;;;;5050361;28;20391;-55
2023/03/12 08:41:54;;;;;;;13.80;5.20;;;4.20;1.00;;;;;;5062477;28;20422;-55
2023/03/12 08:44:20;;;;;;;11.38;5.32;;;4.40;1.00;;;;;;5049388;28;20395;-56
2023/03/12 08:46:46;;;;;;;10.20;5.30;;;4.60;99.90;;;;;;5042138;28;20421;-55
2023/03/12 08:49:12;;;;;;;11.73;5.50;;;5.10;1.00;;;;;;5049667;28;20559;-56
2023/03/12 08:51:37;;;;;;;9.88;4.93;;;5.20;19.50;;;;;;5044988;28;20385;-55
2023/03/12 08:54:04;;;;;;;10.70;5.17;;;5.80;99.90;;;;;;5055886;28;20893;-59
2023/03/12 08:56:30;;;;;;;10.80;5.03;;;4.80;99.90;;;;;;5057081;28;20384;-56
2023/03/12 08:58:58;;;;;;;14.63;5.75;;;5.20;1.00;;;;;;5056088;28;20416;-58
2023/03/12 09:01:23;;;;;;;10.93;4.70;;;5.30;1.00;;;;;;5045522;28;21029;-58
2023/03/12 09:03:51;;;;;;;12.73;4.93;;;5.40;1.00;;;;;;5035425;28;20519;-57
2023/03/12 09:06:18;;;;;;;12.27;5.15;;;6.30;1.00;;;;;;5054467;28;20385;-57
2023/03/12 09:08:44;;;;;;;10.90;4.80;;;6.10;1.00;;;;;;5038707;28;20408;-58
2023/03/12 09:11:12;;;;;;;11.75;5.32;;;6.50;99.90;;;;;;5038368;28;20407;-62
2023/03/12 09:13:38;;;;;;;13.02;4.90;;;6.20;99.90;;;;;;5042680;28;20385;-61
2023/03/12 09:16:05;;;;;;;10.15;5.25;;;5.40;99.90;;;;;;5053917;28;20408;-63
2023/03/12 09:18:31;;;;;;;12.07;5.10;;;5.50;1.00;;;;;;5045443;28;20491;-61
2023/03/12 09:20:57;;;;;;;13.20;5.22;;;6.20;1.00;;;;;;5046905;28;20670;-62
2023/03/12 09:23:23;;;;;;;14.55;4.80;;;6.00;99.90;;;;;;5039380;28;21109;-61
2023/03/12 09:25:49;;;;;;;14.18;5.25;;;6.20;99.90;;;;;;5031215;28;20486;-61
2023/03/12 09:28:15;;;;;;;12.20;4.67;;;6.60;1.00;;;;;;5038724;28;20515;-61
2023/03/12 09:30:41;;;;;;;12.00;5.20;;;6.70;1.00;;;;;;5041563;28;20489;-62
2023/03/12 09:33:07;;;;;;;8.82;4.32;;;6.80;99.90;;;;;;5032233;28;20817;-58
2023/03/12 09:35:33;;;;;;;11.15;5.68;;;6.90;1.00;;;;;;5036985;28;20394;-59
2023/03/12 09:37:59;;;;;;;11.60;4.30;;;6.90;99.90;;;;;;5035596;28;20397;-63
2023/03/12 09:40:28;;;;;;;10.53;5.03;;;7.00;1.00;;;;;;5032324;28;20447;-62
2023/03/12 09:43:17;;;;;;;11.95;4.80;;;7.20;37.80;;;;;;5031647;28;20410;-62
2023/03/12 09:45:45;;;;;;;12.48;4.65;;;8.30;1.00;;;;;;5040383;28;20421;-63
2023/03/12 09:48:17;;;;;;;11.65;5.00;;;7.50;1.00;;;;;;5035635;28;20455;-62
2023/03/12 09:50:46;;;;;;;12.85;5.10;;;7.50;1.00;;;;;;5042859;28;20877;-62
2023/03/12 09:53:24;;;;;;;12.90;5.00;;;7.60;1.00;;;;;;5032067;28;20535;-62
2023/03/12 09:55:52;;;;;;;10.88;4.78;;;7.80;1.00;;;;;;5038143;28;20409;-57
2023/03/12 09:58:33;;;;;;;11.50;4.95;;;7.70;1.00;;;;;;5041389;28;20405;-56
2023/03/12 10:01:18;;;;;;;12.93;5.15;;;7.80;1.00;;;;;;5050382;28;20384;-58
2023/03/12 10:04:21;;;;;;;11.88;5.30;;;7.60;1.00;;;;;;5048684;28;20389;-58
2023/03/12 10:07:04;;;;;;;12.15;5.43;;;7.60;99.90;;;;;;5039375;28;20393;-58
2023/03/12 10:09:42;;;;;;;13.15;5.40;;;7.70;1.00;;;;;;5035514;28;20927;-58
2023/03/12 10:12:33;;;;;;;13.23;5.10;;;7.90;1.00;;;;;;5048452;28;20473;-57
2023/03/12 10:15:13;;;;;;;11.38;5.72;;;8.00;99.90;;;;;;5041761;28;20381;-56
2023/03/12 10:18:03;;;;;;;11.25;5.50;;;8.10;1.00;;;;;;5053472;28;20854;-56
2023/03/12 10:20:49;;;;;;;13.48;5.57;;;8.20;99.90;;;;;;5046604;28;20372;-56
2023/03/12 10:23:41;;;;;;;12.02;5.40;;;8.10;97.70;;;;;;5061626;28;20383;-56
2023/03/12 10:26:44;;;;;;;12.05;5.07;;;8.30;1.00;;;;;;5060932;28;20378;-56
2023/03/12 10:29:37;;;;;;;12.53;5.70;;;8.90;1.00;;;;;;4980513;28;20457;-55
2023/03/12 10:32:12;;;;;;;11.02;5.30;;;8.60;99.90;;;;;;5058266;28;20432;-59
2023/03/12 10:34:49;;;;;;;11.38;5.60;;;8.80;1.00;;;;;;5050010;28;20417;-56
2023/03/12 10:37:15;;;;;;;13.93;6.38;;;9.00;99.90;;;;;;5054141;28;20409;-56
2023/03/12 10:39:41;;;;;;;11.30;3.80;;;9.10;95.50;;;;;;5055800;28;20388;-56
2023/03/12 10:42:19;;;;;;;8.73;3.22;;;9.00;85.60;;;;;;5053661;28;20416;-56
2023/03/12 10:44:47;;;;;;;9.65;4.68;;;9.10;99.90;;;;;;5052047;28;20377;-56
2023/03/12 10:47:34;;;;;;;8.20;3.15;;;8.90;99.90;;;;;;5054658;28;20396;-56
2023/03/12 10:50:19;;;;;;;8.55;3.60;;;8.80;1.00;;;;;;5050717;28;20418;-59
2023/03/12 10:52:46;;;;;;;10.70;4.88;;;8.90;1.00;;;;;;5044397;28;20423;-58
2023/03/12 10:55:25;;;;;;;8.00;3.65;;;9.00;1.00;;;;;;5048111;28;20495;-56
2023/03/12 10:57:52;;;;;;;8.05;3.15;;;9.10;1.00;;;;;;5042716;28;20417;-56
2023/03/12 11:00:30;;;;;;;7.15;2.90;;;9.20;1.00;;;;;;5042780;28;20396;-56
2023/03/12 11:03:02;;;;;;;7.68;3.25;;;9.00;99.90;;;;;;5044305;28;20409;-56
2023/03/12 11:05:57;;;;;;;7.17;1.93;;;9.10;1.00;;;;;;5044280;28;20409;-58
2023/03/12 11:08:31;;;;;;;7.53;2.50;;;9.20;99.90;;;;;;5047784;28;20897;-57
2023/03/12 11:10:59;;;;;;;7.82;2.10;;;8.50;99.90;;;;;;5035084;28;20405;-58
2023/03/12 11:13:36;;;;;;;6.57;1.80;;;9.40;99.90;;;;;;5037648;28;20401;-57
2023/03/12 11:16:24;;;;;;;8.68;2.47;;;9.60;99.90;;;;;;5039910;28;20790;-61
2023/03/12 11:18:56;;;;;;;6.33;1.77;;;9.80;99.90;;;;;;5036942;28;20415;-57
2023/03/12 11:21:22;;;;;;;5.70;1.67;;;10.00;99.90;;;;;;5040305;28;20405;-56
2023/03/12 11:23:56;;;;;;;6.70;1.90;;;10.20;1.00;;;;;;5034900;28;20443;-57
2023/03/12 11:26:42;;;;;;;7.05;1.70;;;11.50;1.00;;;;;;5045001;28;20752;-59
2023/03/12 11:29:31;;;;;;;5.40;1.20;;;10.30;1.00;;;;;;5036875;28;20451;-57
2023/03/12 11:32:16;;;;;;;5.47;1.08;;;10.60;99.90;;;;;;5033189;28;20823;-57
2023/03/12 11:34:46;;;;;;;7.60;1.35;;;10.90;99.90;;;;;;5044338;28;20493;-56
2023/03/12 11:37:27;;;;;;;5.10;1.10;;;11.20;51.60;;;;;;5039355;28;20448;-56
2023/03/12 11:40:32;;;;;;;5.20;1.20;;;11.40;99.90;;;;;;5038863;28;20809;-57
2023/03/12 11:43:26;;;;;;;5.10;1.50;;;11.40;97.50;;;;;;5036843;28;20734;-58
2023/03/12 11:46:12;;;;;;;6.20;1.05;;;11.40;99.90;;;;;;5053651;28;20389;-57
2023/03/12 11:49:02;;;;;;;5.90;1.20;;;11.40;99.90;;;;;;5065187;28;20408;-57
2023/03/12 11:51:45;;;;;;;4.80;0.93;;;11.20;1.00;;;;;;5064740;28;20913;-56
2023/03/12 11:54:40;;;;;;;6.50;0.80;;;11.00;40.50;;;;;;5058283;28;20372;-57
2023/03/12 11:57:27;;;;;;;4.72;1.00;;;10.50;99.90;;;;;;5047573;28;20406;-58
2023/03/12 12:00:11;;;;;;;4.90;1.20;;;10.40;99.90;;;;;;5060521;28;20760;-56
2023/03/12 12:02:43;;;;;;;8.80;1.10;;;10.50;99.90;;;;;;5069303;28;20384;-57
2023/03/12 12:05:36;;;;;;;5.28;1.33;;;10.70;99.90;;;;;;5060368;28;21093;-56
2023/03/12 12:08:23;;;;;;;7.00;1.20;;;11.00;1.00;;;;;;5054773;28;20413;-61
2023/03/12 12:10:56;;;;;;;8.48;1.30;;;11.00;1.00;;;;;;5049922;28;20420;-57
2023/03/12 12:13:39;;;;;;;7.20;1.20;;;11.10;1.00;;;;;;5058123;28;20496;-57
2023/03/12 12:16:29;;;;;;;6.75;1.33;;;11.50;1.00;;;;;;5068204;28;20528;-61
2023/03/12 12:19:07;;;;;;;5.90;1.43;;;12.00;17.00;;;;;;5062750;28;20465;-57
2023/03/12 12:21:54;;;;;;;7.60;1.35;;;12.10;99.90;;;;;;5063493;28;20385;-56
2023/03/12 12:24:38;;;;;;;7.25;1.10;;;12.00;99.90;;;;;;5069268;28;20399;-57
2023/03/12 12:27:20;;;;;;;6.63;1.20;;;12.40;1.00;;;;;;5042056;28;20806;-61
2023/03/12 12:29:48;;;;;;;7.50;2.35;;;12.60;1.00;;;;;;5063927;28;20421;-57
2023/03/12 12:32:37;;;;;;;6.43;0.90;;;12.50;1.00;;;;;;5069631;28;20388;-57
2023/03/12 12:35:32;;;;;;;7.45;1.50;;;12.30;99.90;;;;;;5068944;28;20422;-60
2023/03/12 12:38:04;;;;;;;7.57;1.20;;;12.20;99.90;;;;;;5049539;28;20452;-58
2023/03/12 12:40:48;;;;;;;6.65;1.10;;;12.10;99.90;;;;;;5049852;28;20455;-59
2023/03/12 12:43:28;;;;;;;5.60;1.05;;;12.10;99.90;;;;;;5048893;28;20458;-57
2023/03/12 12:45:59;;;;;;;5.70;1.02;;;12.00;99.90;;;;;;5049951;28;20479;-57
2023/03/12 12:48:31;;;;;;;7.50;1.60;;;12.00;1.00;;;;;;5048818;28;20410;-56
2023/03/12 12:50:59;;;;;;;7.70;1.00;;;12.20;99.90;;;;;;5049669;28;20385;-57
2023/03/12 12:53:40;;;;;;;8.00;1.10;;;12.00;99.90;;;;;;5060670;28;20391;-58
2023/03/12 12:56:33;;;;;;;4.72;0.82;;;11.90;99.90;;;;;;5049142;28;20904;-61
2023/03/12 12:59:15;;;;;;;6.45;1.05;;;11.90;99.90;;;;;;5049491;28;20405;-57
2023/03/12 13:01:41;;;;;;;6.10;1.60;;;11.80;1.00;;;;;;5049828;28;20377;-58
2023/03/12 13:04:23;;;;;;;6.50;1.10;;;11.60;1.00;;;;;;5048747;28;20747;-56
2023/03/12 13:06:56;;;;;;;5.72;0.90;;;11.50;1.00;;;;;;5062352;28;20407;-57